Tuckahoe, Virginia
Current Conditions -  °F | °C
As of 10:54 AM on Thursday 30 Oct 2014 (Local Time) from KOFP Reporting Station
Clear Clear  
Wind Chill: 56°   Ceiling: Unl
Heat Index: 56°   Visibility: 10mi
Dew Point: 41°   Wind: 8mph
Humidity: 57%   Direction: 330°NNW
Pressure: 30.09"   Gusts: NA
Location:  37.5871°N, 77.5706°W
Report Text: KOFP 301454Z AUTO 33007KT 10SM CLR 13/05 A3009 RMK AO2 SLP189 T01330050 51010
Loading
Personal Weather Stations






























Interactive Weather Map
Tropical Storm Tracking
New forecast layout! Learn more

10-Day Weather Forecast

Advertisements
Track Severe Weather on mobile